Time;durP1;ratioP1;P1;durP2;ratioP2;P2;SDS_P1;SDS_P2;PMS_P1;PMS_P2;Temp;Humidity;BMP_temperature;BMP_pressure;BME280_temperature;BME280_humidity;BME280_pressure;Samples;Min_cycle;Max_cycle;Signal;HPM_P1;HPM_P2
2023/10/29 00:01:26;;;;;;;3.70;3.00;;;10.50;99.90;;;11.21;100.00;96634.63;10409399;23;20229;-64
2023/10/29 00:06:30;;;;;;;4.63;2.47;;;10.40;99.90;;;11.06;100.00;96623.88;10440208;28;20703;-68
2023/10/29 00:11:33;;;;;;;2.92;2.67;;;10.30;99.90;;;11.05;100.00;96627.25;10440253;28;20244;-64
2023/10/29 00:16:37;;;;;;;3.88;2.42;;;10.30;99.90;;;10.92;100.00;96610.59;10440244;28;20244;-65
2023/10/29 00:21:41;;;;;;;2.92;2.30;;;10.20;99.90;;;10.95;100.00;96607.28;10441645;28;20248;-66
2023/10/29 00:26:44;;;;;;;2.47;2.28;;;10.20;99.90;;;10.98;100.00;96612.50;10440005;28;20217;-65
2023/10/29 00:31:49;;;;;;;4.47;2.60;;;10.20;99.90;;;10.95;100.00;96614.97;10436314;28;20659;-67
2023/10/29 00:36:52;;;;;;;2.85;2.53;;;10.20;99.90;;;10.84;100.00;96617.13;10434601;28;20240;-65
2023/10/29 00:41:55;;;;;;;3.40;2.80;;;10.10;99.90;;;10.78;100.00;96617.78;10433121;28;20244;-66
2023/10/29 00:47:00;;;;;;;3.78;2.83;;;10.00;99.90;;;10.79;100.00;96621.22;10432993;28;20620;-65
2023/10/29 00:52:04;;;;;;;2.97;2.78;;;10.10;99.90;;;10.86;100.00;96618.06;10436133;28;20685;-65
2023/10/29 00:57:08;;;;;;;3.33;2.60;;;10.20;99.90;;;10.99;100.00;96619.38;10435640;28;20716;-67
2023/10/29 01:02:12;;;;;;;4.55;2.88;;;10.20;99.90;;;10.98;100.00;96617.63;10434190;28;20231;-65
2023/10/29 01:07:16;;;;;;;2.90;2.58;;;10.20;99.90;;;10.75;100.00;96615.09;10438171;28;20650;-67
2023/10/29 01:12:21;;;;;;;2.75;2.55;;;10.10;99.90;;;10.66;100.00;96611.38;10438174;28;20918;-66
2023/10/29 01:17:25;;;;;;;3.97;2.70;;;10.00;99.90;;;10.80;100.00;96618.72;10438345;28;20728;-64
2023/10/29 01:22:28;;;;;;;3.83;3.15;;;10.10;99.90;;;10.74;100.00;96618.50;10438072;28;20721;-65
2023/10/29 01:27:31;;;;;;;3.47;3.10;;;10.10;99.90;;;10.68;100.00;96594.41;10436797;28;20594;-66
2023/10/29 01:32:36;;;;;;;4.70;2.55;;;10.00;99.90;;;10.72;100.00;96597.13;10435558;28;20658;-65
2023/10/29 01:37:39;;;;;;;3.40;2.83;;;10.00;99.90;;;10.69;100.00;96596.13;10438244;28;20221;-66
2023/10/29 01:42:43;;;;;;;3.63;3.30;;;10.00;99.90;;;10.73;100.00;96603.09;10435195;28;20247;-65
2023/10/29 01:47:48;;;;;;;3.65;3.28;;;10.00;99.90;;;10.76;100.00;96601.53;10434464;28;20239;-65
2023/10/29 01:52:53;;;;;;;5.25;4.28;;;10.00;99.90;;;10.87;100.00;96572.91;10435182;28;20229;-65
2023/10/29 01:57:57;;;;;;;3.88;3.47;;;10.10;99.90;;;11.05;100.00;96564.19;10434147;28;20231;-65
2023/10/29 02:03:01;;;;;;;3.10;2.80;;;10.30;99.90;;;11.07;100.00;96551.44;10433403;28;20221;-66
2023/10/29 02:08:05;;;;;;;3.80;2.83;;;10.40;99.90;;;11.09;100.00;96529.38;10434856;28;20233;-65
2023/10/29 02:13:08;;;;;;;2.72;2.53;;;10.30;99.90;;;11.15;100.00;96529.56;10437078;28;20280;-65
2023/10/29 02:18:13;;;;;;;3.65;2.83;;;10.40;99.90;;;10.95;100.00;96538.25;10436388;28;20696;-65
2023/10/29 02:23:17;;;;;;;3.58;3.03;;;10.30;99.90;;;10.75;100.00;96537.56;10435128;28;20768;-65
2023/10/29 02:28:20;;;;;;;3.20;2.90;;;10.10;99.90;;;10.65;100.00;96526.19;10435259;28;20722;-66
2023/10/29 02:33:23;;;;;;;3.08;2.78;;;10.00;99.90;;;10.57;100.00;96522.47;10435179;28;20225;-65
2023/10/29 02:38:28;;;;;;;3.25;2.92;;;9.90;99.90;;;10.48;100.00;96517.06;10434947;28;20225;-66
2023/10/29 02:43:31;;;;;;;2.90;2.60;;;9.80;99.90;;;10.37;100.00;96509.88;10433765;28;20315;-66
2023/10/29 02:48:34;;;;;;;3.40;3.13;;;9.60;99.90;;;10.34;100.00;96507.19;10433488;28;20229;-65
2023/10/29 02:53:39;;;;;;;3.08;2.65;;;9.50;99.90;;;10.23;100.00;96505.91;10435150;28;20232;-66
2023/10/29 02:58:42;;;;;;;2.40;2.30;;;9.50;99.90;;;10.18;100.00;96498.91;10432515;28;20232;-64
2023/10/29 03:03:45;;;;;;;5.78;2.92;;;9.40;99.90;;;10.15;100.00;96509.88;10432542;28;20229;-64
2023/10/29 03:08:50;;;;;;;4.20;2.60;;;9.40;99.90;;;10.12;100.00;96509.75;10433270;28;20312;-65
2023/10/29 03:13:53;;;;;;;3.97;2.90;;;9.40;99.90;;;9.94;100.00;96522.72;10433378;28;20233;-65
2023/10/29 03:18:56;;;;;;;4.55;3.17;;;9.20;99.90;;;9.91;100.00;96515.81;10432211;28;20228;-64
2023/10/29 03:24:00;;;;;;;4.03;2.72;;;9.20;99.90;;;9.89;100.00;96514.88;10438255;28;20231;-65
2023/10/29 03:29:04;;;;;;;3.05;2.30;;;9.20;99.90;;;9.82;100.00;96506.94;10441595;28;20751;-65
2023/10/29 03:34:07;;;;;;;4.30;2.38;;;9.10;99.90;;;9.78;100.00;96497.41;10440289;28;20251;-65
2023/10/29 03:39:12;;;;;;;2.83;2.45;;;9.00;99.90;;;9.47;100.00;96499.69;10443070;28;20316;-65
2023/10/29 03:44:15;;;;;;;2.65;2.40;;;8.80;99.90;;;9.38;100.00;96498.44;10441588;28;20628;-64
2023/10/29 03:49:19;;;;;;;2.92;2.45;;;8.70;99.90;;;9.40;100.00;96505.31;10440371;28;20596;-65
2023/10/29 03:54:23;;;;;;;5.28;2.30;;;8.70;99.90;;;9.34;100.00;96497.44;10440185;28;20233;-65
2023/10/29 03:59:26;;;;;;;4.65;2.40;;;8.60;99.90;;;9.36;100.00;96511.13;10441181;28;20225;-66
2023/10/29 04:04:31;;;;;;;2.42;2.22;;;8.70;99.90;;;9.30;100.00;96494.69;10439178;28;20228;-65
2023/10/29 04:09:35;;;;;;;4.50;2.85;;;8.60;99.90;;;9.24;100.00;96495.31;10436017;28;20228;-65
2023/10/29 04:14:42;;;;;;;4.70;2.40;;;8.60;99.90;;;9.22;100.00;96494.41;10440477;28;20221;-65
2023/10/29 04:19:45;;;;;;;4.68;2.63;;;8.50;99.90;;;9.10;100.00;96486.25;10440224;28;20232;-67
2023/10/29 04:24:50;;;;;;;5.55;2.60;;;8.40;99.90;;;9.13;100.00;96487.28;10439642;28;20221;-65
2023/10/29 04:29:53;;;;;;;3.55;2.92;;;8.50;99.90;;;9.15;100.00;96495.81;10441298;28;20244;-64
2023/10/29 04:34:56;;;;;;;5.97;3.22;;;8.50;99.90;;;9.24;100.00;96501.31;10438639;28;20256;-66
2023/10/29 04:40:01;;;;;;;5.75;4.50;;;8.60;99.90;;;9.31;100.00;96501.56;10440073;28;20232;-64
2023/10/29 04:45:05;;;;;;;4.32;3.28;;;8.60;99.90;;;9.35;100.00;96501.72;10438257;28;20263;-65
2023/10/29 04:50:09;;;;;;;5.25;4.95;;;8.70;99.90;;;9.36;100.00;96498.38;10438512;28;20232;-64
2023/10/29 04:55:13;;;;;;;36.15;32.88;;;8.70;99.90;;;9.26;100.00;96493.72;10437874;28;20295;-65
2023/10/29 05:00:17;;;;;;;3.55;3.35;;;8.60;99.90;;;9.16;100.00;96487.38;10437284;28;20229;-64
2023/10/29 05:05:20;;;;;;;3.00;2.80;;;8.50;99.90;;;9.12;100.00;96484.66;10438569;28;20482;-66
2023/10/29 05:10:28;;;;;;;6.05;3.92;;;8.40;99.90;;;9.30;100.00;96479.41;10436264;28;22007;-64
2023/10/29 05:15:31;;;;;;;4.75;4.38;;;8.50;99.90;;;9.19;100.00;96473.91;10437560;28;20312;-63
2023/10/29 05:20:34;;;;;;;4.00;3.63;;;8.50;99.90;;;9.14;100.00;96472.84;10438058;28;20773;-66
2023/10/29 05:25:39;;;;;;;3.40;3.20;;;8.40;99.90;;;9.07;100.00;96468.28;10435739;28;20232;-65
2023/10/29 05:30:42;;;;;;;2.53;2.40;;;8.30;99.90;;;8.96;100.00;96463.66;10433512;28;20312;-64
2023/10/29 05:35:45;;;;;;;3.35;2.50;;;8.30;99.90;;;8.91;100.00;96465.13;10436942;28;20379;-65
2023/10/29 05:40:50;;;;;;;2.60;2.50;;;8.30;99.90;;;8.95;100.00;96468.66;10436783;28;20374;-66
2023/10/29 05:45:54;;;;;;;3.90;3.67;;;8.30;99.90;;;9.06;100.00;96458.91;10437278;28;20231;-64
2023/10/29 05:50:57;;;;;;;4.15;3.88;;;8.30;99.90;;;9.09;100.00;96469.22;10437963;28;20263;-66
2023/10/29 05:56:04;;;;;;;5.05;4.05;;;8.50;99.90;;;9.16;100.00;96476.34;10437132;28;20311;-65
2023/10/29 06:01:07;;;;;;;2.72;2.53;;;8.50;99.90;;;9.18;100.00;96480.66;10429597;28;20231;-65
2023/10/29 06:06:10;;;;;;;2.78;2.53;;;8.50;99.90;;;9.25;100.00;96472.44;10435460;28;20769;-65
2023/10/29 06:11:15;;;;;;;2.90;2.63;;;8.50;99.90;;;9.33;100.00;96467.66;10426373;28;20233;-64
2023/10/29 06:16:18;;;;;;;2.80;2.60;;;8.60;99.90;;;9.27;100.00;96464.88;10426419;28;20653;-65
2023/10/29 06:21:21;;;;;;;5.68;5.38;;;8.60;99.90;;;9.24;100.00;96472.38;10431051;28;20653;-66
2023/10/29 06:26:26;;;;;;;3.72;3.38;;;8.60;99.90;;;9.33;100.00;96457.47;10428745;28;21014;-65
2023/10/29 06:31:30;;;;;;;3.70;3.40;;;8.80;99.90;;;9.48;100.00;96475.91;10426573;28;20259;-65
2023/10/29 06:36:33;;;;;;;4.30;3.20;;;8.90;99.90;;;9.57;100.00;96484.72;10427736;28;20310;-65
2023/10/29 06:41:38;;;;;;;3.47;2.90;;;9.00;99.90;;;9.65;100.00;96476.56;10429870;28;20225;-65
2023/10/29 06:46:41;;;;;;;2.90;2.70;;;9.00;99.90;;;9.83;100.00;96466.16;10429226;28;20260;-67
2023/10/29 06:51:44;;;;;;;2.80;2.60;;;9.20;99.90;;;9.80;100.00;96486.47;10428022;28;20833;-66
2023/10/29 06:56:49;;;;;;;3.17;2.97;;;9.20;99.90;;;9.94;100.00;96520.16;10418952;28;20584;-66
2023/10/29 07:01:52;;;;;;;3.17;2.80;;;9.40;99.90;;;10.12;100.00;96522.53;10427494;28;20232;-64
2023/10/29 07:06:55;;;;;;;4.10;3.15;;;9.50;99.90;;;10.36;100.00;96532.81;10425186;28;22063;-65
2023/10/29 07:12:00;;;;;;;3.90;3.55;;;9.70;99.90;;;10.36;100.00;96533.69;10426101;28;20259;-65
2023/10/29 07:17:03;;;;;;;3.63;3.00;;;9.70;99.90;;;10.43;100.00;96554.31;10425004;28;20615;-65
2023/10/29 07:22:06;;;;;;;3.13;2.92;;;9.70;99.90;;;10.46;100.00;96564.66;10427233;28;20225;-66
2023/10/29 07:27:11;;;;;;;2.85;2.58;;;9.70;99.90;;;10.41;100.00;96555.94;10426140;28;20223;-66
2023/10/29 07:32:14;;;;;;;5.40;5.00;;;9.80;99.90;;;10.43;100.00;96565.41;10424738;28;20232;-67
2023/10/29 07:37:17;;;;;;;4.38;3.15;;;9.80;99.90;;;10.55;100.00;96562.41;10428527;28;20229;-65
2023/10/29 07:42:23;;;;;;;2.80;2.60;;;9.90;99.90;;;10.71;100.00;96564.72;10426472;28;20718;-67
2023/10/29 07:47:26;;;;;;;5.57;5.15;;;10.10;99.90;;;10.87;100.00;96563.56;10431698;28;20236;-65
2023/10/29 07:52:29;;;;;;;4.93;4.53;;;10.20;99.90;;;11.00;100.00;96568.28;10430597;28;20240;-66
2023/10/29 07:57:34;;;;;;;8.57;7.75;;;10.30;99.90;;;11.13;100.00;96567.03;10431687;28;20236;-66
2023/10/29 08:02:37;;;;;;;6.25;5.63;;;10.40;99.90;;;11.28;100.00;96566.66;10435483;28;20731;-65
2023/10/29 08:07:40;;;;;;;9.30;8.40;;;10.50;99.90;;;11.39;100.00;96570.44;10434308;28;20228;-66
2023/10/29 08:12:45;;;;;;;5.45;5.05;;;10.60;99.90;;;11.22;100.00;96580.13;10437897;28;20244;-65
2023/10/29 08:17:48;;;;;;;3.53;3.30;;;10.50;99.90;;;11.23;100.00;96581.84;10435220;28;20228;-66
2023/10/29 08:22:51;;;;;;;14.38;13.27;;;10.50;99.90;;;11.25;100.00;96585.34;10432645;28;20225;-65
2023/10/29 08:27:56;;;;;;;10.50;9.80;;;10.60;99.90;;;11.46;99.51;96581.75;10440978;28;20225;-65
2023/10/29 08:32:59;;;;;;;6.45;5.85;;;10.60;99.90;;;11.30;100.00;96580.34;10439481;28;20246;-66
2023/10/29 08:38:02;;;;;;;5.05;4.75;;;10.70;99.90;;;11.38;100.00;96576.38;10440618;28;20243;-68
2023/10/29 08:43:07;;;;;;;4.95;4.43;;;10.80;99.90;;;11.68;100.00;96579.06;10439220;28;20233;-65
2023/10/29 08:48:11;;;;;;;4.97;4.60;;;10.90;99.90;;;11.87;100.00;96585.66;10436901;28;20584;-65
2023/10/29 08:53:14;;;;;;;4.85;4.43;;;11.10;99.90;;;11.87;100.00;96600.13;10438860;28;20233;-66
2023/10/29 08:58:20;;;;;;;7.53;6.93;;;11.20;99.90;;;12.12;100.00;96612.88;10438872;28;20236;-65
2023/10/29 09:03:24;;;;;;;3.45;3.25;;;11.20;99.90;;;12.29;100.00;96615.09;10438122;28;20229;-65
2023/10/29 09:08:28;;;;;;;3.80;3.35;;;11.30;99.90;;;12.38;100.00;96621.34;10438560;28;20248;-65
2023/10/29 09:13:32;;;;;;;3.50;3.20;;;11.60;99.90;;;12.60;100.00;96629.69;10437765;28;20813;-65
2023/10/29 09:18:36;;;;;;;5.93;5.47;;;11.70;99.90;;;12.76;99.50;96631.00;10438082;28;20308;-65
2023/10/29 09:23:39;;;;;;;3.83;2.83;;;12.00;99.90;;;13.01;98.54;96630.84;10436922;28;20255;-66
2023/10/29 09:28:44;;;;;;;3.75;3.45;;;12.30;99.90;;;13.14;97.39;96632.06;10437444;28;20302;-65
2023/10/29 09:33:47;;;;;;;7.03;3.33;;;12.40;99.90;;;13.33;95.78;96635.16;10438268;28;20255;-64
2023/10/29 09:38:50;;;;;;;3.65;3.42;;;12.50;99.90;;;13.31;97.51;96640.25;10436773;28;20217;-66
2023/10/29 09:43:57;;;;;;;3.58;3.25;;;12.50;99.90;;;13.38;97.32;96637.00;10438155;28;20229;-68
2023/10/29 09:49:01;;;;;;;4.70;4.30;;;12.70;99.90;;;13.52;97.15;96627.09;10435165;28;20754;-66
2023/10/29 09:54:05;;;;;;;4.85;4.45;;;12.80;99.90;;;13.75;96.68;96612.28;10435896;28;20237;-66
2023/10/29 09:59:10;;;;;;;5.75;5.28;;;13.10;99.90;;;13.95;95.91;96616.19;10437032;28;20244;-65
2023/10/29 10:04:13;;;;;;;5.10;4.70;;;13.30;99.90;;;14.02;93.98;96611.19;10435026;28;20237;-66
2023/10/29 10:09:16;;;;;;;5.40;5.00;;;13.30;99.90;;;13.98;93.59;96603.41;10436200;28;20619;-65
2023/10/29 10:14:27;;;;;;;7.20;6.47;;;13.30;99.90;;;14.11;92.83;96606.28;10436634;28;20700;-66
2023/10/29 10:19:30;;;;;;;4.00;3.70;;;13.30;99.90;;;13.95;93.79;96594.75;10435552;28;20624;-65
2023/10/29 10:24:43;;;;;;;8.05;7.32;;;13.20;99.90;;;14.01;95.43;96588.91;10436713;28;20731;-65
2023/10/29 10:29:52;;;;;;;7.22;6.55;;;13.30;99.90;;;14.14;96.22;96560.97;10437074;28;20715;-65
2023/10/29 10:34:57;;;;;;;11.15;10.43;;;13.40;99.90;;;14.25;92.87;96563.75;10433529;28;20224;-65
2023/10/29 10:40:00;;;;;;;5.28;4.78;;;13.50;99.90;;;14.29;89.90;96559.56;10435903;28;20213;-66
2023/10/29 10:45:06;;;;;;;4.38;3.97;;;13.60;99.90;;;14.40;89.92;96545.22;10434653;28;20217;-65
2023/10/29 10:50:10;;;;;;;3.17;2.97;;;13.80;99.90;;;14.52;89.71;96522.34;10435110;28;20302;-64
2023/10/29 10:55:14;;;;;;;3.10;2.80;;;13.80;99.90;;;14.63;86.98;96518.28;10432155;28;20599;-67
2023/10/29 11:00:35;;;;;;;3.15;2.80;;;14.00;99.90;;;14.95;84.76;96512.03;10433675;28;20618;-65
2023/10/29 11:05:41;;;;;;;3.25;3.00;;;14.20;99.90;;;15.17;83.56;96515.84;10431995;28;20237;-65
2023/10/29 11:10:47;;;;;;;3.15;2.95;;;14.50;99.90;;;15.28;85.18;96522.91;10434103;28;20229;-64
2023/10/29 11:15:51;;;;;;;3.65;2.67;;;14.60;99.90;;;15.44;84.93;96531.75;10437070;28;20235;-64
2023/10/29 11:20:56;;;;;;;2.95;2.63;;;14.80;99.90;;;15.60;84.76;96525.16;10438929;28;20311;-67
2023/10/29 11:26:23;;;;;;;3.45;3.15;;;14.90;99.90;;;15.68;82.96;96527.84;10435231;28;20251;-65
2023/10/29 11:31:28;;;;;;;2.47;2.28;;;15.00;99.90;;;15.84;83.18;96541.84;10432536;28;20623;-67
2023/10/29 11:36:34;;;;;;;2.72;2.53;;;15.00;99.90;;;15.88;83.95;96535.88;10435207;28;20402;-64
2023/10/29 11:41:38;;;;;;;3.17;2.80;;;15.10;99.90;;;15.86;85.27;96533.31;10434727;28;20229;-66
2023/10/29 11:47:08;;;;;;;3.30;3.00;;;15.10;99.90;;;15.83;86.29;96512.66;10441579;28;20798;-66
2023/10/29 11:52:11;;;;;;;4.53;2.60;;;15.10;99.90;;;15.95;85.44;96506.81;10442029;28;20224;-65
2023/10/29 11:57:16;;;;;;;2.67;2.47;;;15.20;99.90;;;16.23;84.01;96484.84;10442163;28;20229;-68
2023/10/29 12:02:21;;;;;;;2.80;2.60;;;15.40;99.90;;;16.01;89.28;96475.94;10439640;28;20303;-65
2023/10/29 12:07:25;;;;;;;3.40;3.10;;;15.30;99.90;;;16.24;87.20;96457.34;10442366;28;20471;-66
2023/10/29 12:12:28;;;;;;;2.67;2.47;;;15.50;99.90;;;16.27;86.31;96458.22;10439339;28;20225;-65
2023/10/29 12:17:34;;;;;;;4.70;3.60;;;15.60;99.90;;;16.47;84.61;96458.47;10441435;28;20233;-65
2023/10/29 12:22:37;;;;;;;3.13;2.78;;;15.80;99.90;;;16.80;83.47;96444.25;10439830;28;20346;-65
2023/10/29 12:27:44;;;;;;;5.28;2.80;;;16.00;99.90;;;16.83;83.00;96447.72;10439865;28;20260;-65
2023/10/29 12:32:48;;;;;;;2.65;2.45;;;16.20;99.90;;;17.03;84.66;96436.72;10439905;28;20320;-66
2023/10/29 12:37:53;;;;;;;3.92;3.10;;;16.40;99.90;;;17.44;81.46;96423.25;10437282;28;22105;-65
2023/10/29 12:42:57;;;;;;;3.13;2.83;;;16.60;99.90;;;17.54;81.60;96420.75;10440003;28;20229;-66
2023/10/29 12:48:16;;;;;;;3.10;2.80;;;16.80;99.90;;;17.75;82.19;96429.47;10439146;28;20235;-66
2023/10/29 12:53:24;;;;;;;3.35;3.05;;;17.00;99.90;;;18.00;79.30;96426.19;10437632;28;20233;-67
2023/10/29 12:58:29;;;;;;;2.90;2.63;;;17.20;99.90;;;17.99;80.44;96427.03;10438494;28;20726;-65
2023/10/29 13:03:33;;;;;;;3.05;2.70;;;17.30;99.90;;;18.05;79.74;96439.13;10437856;28;20298;-65
2023/10/29 13:08:38;;;;;;;3.08;2.47;;;17.30;99.90;;;18.06;80.11;96442.59;10439340;28;20227;-66
2023/10/29 13:13:41;;;;;;;10.85;7.07;;;17.30;99.90;;;18.30;72.01;96419.41;10435460;28;20225;-68
2023/10/29 13:18:47;;;;;;;3.42;3.10;;;17.50;99.90;;;18.52;63.54;96409.13;10435686;28;20241;-66
2023/10/29 13:23:50;;;;;;;1.25;1.25;;;17.70;99.90;;;18.92;53.46;96396.28;10430720;28;20248;-65
2023/10/29 13:28:54;;;;;;;1.23;1.15;;;18.20;99.90;;;18.99;51.48;96379.88;10426690;28;20302;-66
2023/10/29 13:33:58;;;;;;;1.27;1.15;;;18.30;99.90;;;19.07;51.41;96385.94;10430957;28;20233;-66
2023/10/29 13:39:02;;;;;;;1.45;1.13;;;18.30;99.50;;;19.00;52.34;96377.31;10433053;28;20217;-66
2023/10/29 13:44:06;;;;;;;1.52;1.05;;;18.40;99.90;;;19.41;49.58;96372.94;10429825;28;20584;-66
2023/10/29 13:49:11;;;;;;;0.98;0.98;;;18.70;98.00;;;19.69;47.46;96360.81;10428601;28;20225;-66
2023/10/29 13:54:14;;;;;;;1.60;1.05;;;19.00;96.30;;;19.76;50.51;96363.38;10429564;28;20230;-67
2023/10/29 13:59:18;;;;;;;1.80;1.70;;;19.00;98.70;;;19.87;51.06;96373.72;10425329;28;20707;-66
2023/10/29 14:04:22;;;;;;;2.03;1.73;;;19.00;99.40;;;19.58;55.44;96366.84;10420178;28;20275;-67
2023/10/29 14:09:25;;;;;;;2.00;1.30;;;18.80;99.90;;;19.36;58.28;96378.13;10424833;28;20225;-65
2023/10/29 14:14:28;;;;;;;3.60;3.30;;;18.50;99.90;;;19.04;58.75;96394.56;10415153;28;20237;-66
2023/10/29 14:19:34;;;;;;;2.42;2.22;;;18.20;99.90;;;18.76;61.63;96401.44;10421950;28;20838;-66
2023/10/29 14:24:37;;;;;;;2.10;2.00;;;17.80;99.90;;;18.53;64.37;96400.50;10425622;28;20225;-66
2023/10/29 14:29:43;;;;;;;1.70;1.60;;;17.60;99.90;;;18.45;67.20;96382.38;10426739;28;20232;-65
2023/10/29 14:34:47;;;;;;;1.67;1.58;;;17.50;99.90;;;18.36;69.58;96378.03;10428374;28;20612;-67
2023/10/29 14:39:51;;;;;;;1.70;1.60;;;17.50;99.90;;;18.28;71.57;96387.50;10426076;28;20736;-66
2023/10/29 14:44:54;;;;;;;1.70;1.60;;;17.40;99.90;;;18.20;73.80;96373.69;10424933;28;20724;-66
2023/10/29 14:49:58;;;;;;;4.90;3.70;;;17.30;99.90;;;18.43;74.43;96361.69;10422110;28;20224;-65
2023/10/29 14:55:04;;;;;;;3.17;2.80;;;17.40;99.90;;;18.21;75.83;96359.91;10426949;28;20253;-66
2023/10/29 15:00:10;;;;;;;2.80;2.58;;;17.30;99.90;;;18.23;77.41;96359.03;10430635;28;20322;-69
2023/10/29 15:05:15;;;;;;;2.58;2.33;;;17.30;99.90;;;18.20;75.91;96371.97;10429133;28;20228;-66
2023/10/29 15:10:18;;;;;;;2.78;2.53;;;17.30;99.90;;;17.94;77.53;96365.81;10428304;28;20239;-65
2023/10/29 15:15:22;;;;;;;3.13;2.83;;;17.10;99.90;;;17.74;77.88;96356.25;10431393;28;20308;-66
2023/10/29 15:20:33;;;;;;;2.50;2.30;;;16.90;99.90;;;17.47;77.23;96350.94;10431625;28;20592;-65
2023/10/29 15:25:41;;;;;;;2.10;2.00;;;16.60;99.90;;;17.38;77.13;96351.75;10432813;28;20231;-65
2023/10/29 15:30:44;;;;;;;2.60;2.05;;;16.50;99.90;;;17.43;75.27;96370.72;10431421;28;20224;-65
2023/10/29 15:35:49;;;;;;;2.03;1.92;;;16.60;99.90;;;17.40;74.93;96375.88;10424992;28;20694;-65
2023/10/29 15:40:52;;;;;;;4.20;3.75;;;16.50;99.90;;;17.31;72.01;96376.69;10426696;28;20303;-66
2023/10/29 15:45:56;;;;;;;3.63;3.33;;;16.40;99.90;;;17.34;65.37;96368.09;10426017;28;20731;-65
2023/10/29 15:51:00;;;;;;;3.78;3.08;;;16.40;99.90;;;17.28;65.76;96383.50;10426807;28;20229;-66
2023/10/29 15:56:08;;;;;;;11.38;7.97;;;16.40;99.90;;;16.96;67.84;96391.88;10428639;28;20236;-68
2023/10/29 16:01:17;;;;;;;24.55;16.60;;;16.20;99.90;;;16.91;68.28;96401.31;10425650;28;20236;-68
2023/10/29 16:13:04;;;;;;;52.63;34.95;;;16.00;99.90;;;16.77;67.72;96403.78;10429436;28;20221;-64
2023/10/29 16:18:08;;;;;;;31.90;25.65;;;16.00;99.90;;;16.82;68.33;96401.22;10430783;28;20229;-66
2023/10/29 16:23:12;;;;;;;34.20;27.20;;;16.00;99.90;;;16.78;68.38;96430.44;10426174;28;20613;-65
2023/10/29 16:28:16;;;;;;;20.73;17.98;;;15.90;99.90;;;16.86;65.03;96441.72;10426937;28;20232;-64
2023/10/29 16:33:19;;;;;;;13.85;9.50;;;16.00;99.90;;;16.70;65.93;96450.97;10436457;28;20945;-64
2023/10/29 16:38:23;;;;;;;13.32;10.15;;;15.90;99.90;;;16.77;65.22;96467.41;10436321;28;20858;-65
2023/10/29 16:43:28;;;;;;;2.97;2.78;;;15.90;99.90;;;16.95;62.18;96474.50;10440567;28;20965;-64
2023/10/29 16:48:31;;;;;;;4.00;3.15;;;16.10;99.90;;;17.21;59.43;96469.56;10439963;28;20224;-66
2023/10/29 16:53:35;;;;;;;2.17;2.08;;;16.40;99.90;;;17.22;58.29;96463.53;10438963;28;20232;-66
2023/10/29 16:58:41;;;;;;;3.05;2.72;;;16.50;99.90;;;17.22;58.03;96479.03;10440388;28;20240;-65
2023/10/29 17:03:45;;;;;;;5.97;4.32;;;16.50;99.90;;;17.18;57.21;96475.56;10441015;28;20236;-65
2023/10/29 17:08:50;;;;;;;8.68;7.68;;;16.50;99.90;;;17.11;59.08;96482.41;10434909;28;20225;-66
2023/10/29 17:13:55;;;;;;;13.80;10.85;;;16.40;99.90;;;17.13;59.03;96478.94;10441507;28;20243;-65
2023/10/29 17:18:58;;;;;;;12.00;9.25;;;16.40;99.90;;;17.14;58.49;96486.72;10437358;28;20720;-67
2023/10/29 17:24:03;;;;;;;6.63;4.50;;;16.40;99.90;;;17.33;56.61;96483.44;10439305;28;20237;-65
2023/10/29 17:29:07;;;;;;;4.65;3.15;;;16.60;99.90;;;17.18;57.73;96490.19;10435801;28;20648;-65
2023/10/29 17:34:11;;;;;;;2.38;2.28;;;16.40;99.90;;;17.06;57.13;96509.88;10439310;28;20769;-65
2023/10/29 17:39:16;;;;;;;4.28;3.88;;;16.30;99.90;;;16.97;58.84;96516.66;10436494;28;20229;-65
2023/10/29 17:44:20;;;;;;;7.78;7.28;;;16.20;99.90;;;16.63;59.31;96596.25;10434259;28;20243;-64
2023/10/29 17:49:25;;;;;;;2.45;2.10;;;16.00;99.90;;;16.49;63.60;96603.81;10432806;28;20229;-65
2023/10/29 17:54:28;;;;;;;4.70;4.30;;;15.90;99.90;;;16.19;68.80;96637.75;10438623;28;20235;-65
2023/10/29 17:59:33;;;;;;;17.20;15.60;;;15.60;99.90;;;15.87;74.69;96673.31;10437909;28;20256;-65
2023/10/29 18:04:36;;;;;;;4.90;4.50;;;15.30;99.90;;;15.52;82.84;96713.03;10438483;28;20233;-65
2023/10/29 18:09:39;;;;;;;5.50;5.05;;;15.00;99.90;;;15.26;89.09;96735.69;10433842;28;20221;-66
2023/10/29 18:14:45;;;;;;;7.07;6.57;;;14.70;99.90;;;15.10;93.03;96747.34;10436517;28;20233;-66
2023/10/29 18:19:48;;;;;;;3.65;3.35;;;14.50;99.90;;;14.96;94.55;96768.47;10434040;28;20236;-65
2023/10/29 18:24:52;;;;;;;4.93;4.53;;;14.40;99.90;;;14.92;95.72;96774.41;10429946;28;20229;-65
2023/10/29 18:29:56;;;;;;;3.47;3.20;;;14.20;99.90;;;14.79;95.94;96765.53;10432177;28;20612;-66
2023/10/29 18:35:01;;;;;;;3.55;3.25;;;14.10;99.90;;;14.55;97.42;96777.00;10431068;28;20278;-66
2023/10/29 18:40:05;;;;;;;4.75;4.35;;;14.00;99.90;;;14.54;98.09;96782.13;10433199;28;20255;-65
2023/10/29 18:45:10;;;;;;;6.03;5.63;;;14.00;99.90;;;14.49;97.88;96788.81;10432949;28;20229;-65
2023/10/29 18:50:13;;;;;;;5.45;5.05;;;13.90;99.90;;;14.45;98.33;96797.25;10432463;28;20225;-65
2023/10/29 18:55:17;;;;;;;2.42;2.15;;;13.80;99.90;;;14.51;97.74;96787.16;10431723;28;20225;-64
2023/10/29 19:00:22;;;;;;;2.75;2.55;;;13.80;99.90;;;14.40;97.84;96795.47;10432088;28;20233;-65
2023/10/29 19:05:25;;;;;;;2.90;2.70;;;13.70;99.90;;;14.36;98.95;96821.03;10431222;28;20240;-65
2023/10/29 19:10:29;;;;;;;2.47;2.33;;;13.70;99.90;;;14.30;98.79;96808.91;10431965;28;20795;-65
2023/10/29 19:15:34;;;;;;;2.80;2.47;;;13.60;99.90;;;14.27;98.06;96806.25;10433696;28;20228;-65
2023/10/29 19:20:37;;;;;;;2.22;2.08;;;13.50;99.90;;;14.25;98.35;96805.38;10432711;28;20245;-65
2023/10/29 19:25:40;;;;;;;4.18;3.78;;;13.60;99.90;;;14.25;98.76;96836.22;10430542;28;20511;-65
2023/10/29 19:30:45;;;;;;;2.88;2.63;;;13.50;99.90;;;14.24;99.29;96880.72;10436169;28;20217;-65
2023/10/29 19:36:13;;;;;;;2.08;1.90;;;13.50;99.90;;;14.29;98.39;96866.28;10427852;28;20233;-66
2023/10/29 19:41:17;;;;;;;2.13;1.92;;;13.50;99.90;;;14.20;98.48;96879.78;10436889;28;20224;-65
2023/10/29 19:46:22;;;;;;;2.25;2.15;;;13.40;99.90;;;14.16;97.63;96882.19;10428775;28;20645;-65
2023/10/29 19:51:26;;;;;;;1.60;1.50;;;13.50;99.90;;;13.96;99.35;96864.56;10429378;28;20233;-65
2023/10/29 19:56:29;;;;;;;2.00;1.90;;;13.30;99.90;;;13.93;99.00;96854.19;10430185;28;20236;-64
2023/10/29 20:01:34;;;;;;;1.92;1.83;;;13.30;99.90;;;13.88;100.00;96860.91;10431938;28;20232;-66
2023/10/29 20:06:37;;;;;;;1.67;1.58;;;13.30;99.90;;;13.87;100.00;96850.56;10436038;28;20704;-64
2023/10/29 20:11:40;;;;;;;2.65;2.45;;;13.20;99.90;;;13.87;100.00;96864.28;10440107;28;20229;-64
2023/10/29 20:16:45;;;;;;;2.20;2.10;;;13.20;99.90;;;13.81;100.00;96869.25;10443055;28;20704;-64
2023/10/29 20:21:49;;;;;;;2.65;2.50;;;13.10;99.90;;;13.85;100.00;96865.97;10441609;28;20265;-65
2023/10/29 20:26:52;;;;;;;2.00;1.73;;;13.10;99.90;;;13.74;100.00;96851.94;10436547;28;20232;-66
2023/10/29 20:31:56;;;;;;;1.70;1.60;;;13.00;99.90;;;13.74;100.00;96862.22;10436155;28;20240;-65
2023/10/29 20:37:00;;;;;;;1.98;1.88;;;13.00;99.90;;;13.75;100.00;96862.25;10434064;28;20683;-65
2023/10/29 20:42:03;;;;;;;3.58;3.15;;;13.00;99.90;;;13.69;100.00;96869.78;10441365;28;20248;-66
2023/10/29 20:47:08;;;;;;;5.28;4.57;;;12.90;99.90;;;13.70;100.00;96870.66;10438995;28;20228;-65
2023/10/29 20:52:13;;;;;;;3.45;2.80;;;12.90;99.90;;;13.67;100.00;96870.56;10439366;28;20232;-65
2023/10/29 20:57:16;;;;;;;2.75;2.53;;;12.90;99.90;;;13.65;100.00;96869.63;10435504;28;20232;-65
2023/10/29 21:02:21;;;;;;;2.92;2.65;;;12.90;99.90;;;13.65;100.00;96872.19;10435054;28;20236;-65
2023/10/29 21:07:24;;;;;;;2.63;2.45;;;12.90;99.90;;;13.61;100.00;96878.09;10436024;28;20933;-65